createdAt,value
2018-02-15T00:01:54.483Z,1.20
2018-02-15T00:04:21.970Z,1.20
2018-02-15T00:06:49.451Z,1.08
2018-02-15T00:09:17.022Z,1.14
2018-02-15T00:11:44.565Z,1.12
2018-02-15T00:14:12.025Z,1.24
2018-02-15T00:16:39.610Z,1.10
2018-02-15T00:19:07.169Z,1.06
2018-02-15T00:21:34.674Z,0.97
2018-02-15T00:24:02.148Z,1.02
2018-02-15T00:26:29.634Z,0.98
2018-02-15T00:28:57.093Z,0.98
2018-02-15T00:31:24.567Z,0.94
2018-02-15T00:33:52.079Z,0.88
2018-02-15T00:36:19.532Z,0.87
2018-02-15T00:38:47.176Z,0.85
2018-02-15T00:41:14.674Z,0.82
2018-02-15T00:43:42.140Z,0.75
2018-02-15T00:46:09.682Z,0.77
2018-02-15T00:48:37.142Z,0.77
2018-02-15T00:51:04.690Z,0.75
2018-02-15T00:53:32.163Z,0.74
2018-02-15T00:55:59.790Z,0.69
2018-02-15T00:58:27.312Z,0.68
2018-02-15T01:00:54.797Z,0.68
2018-02-15T01:03:22.262Z,0.55
2018-02-15T01:05:49.818Z,0.45
2018-02-15T01:08:17.286Z,0.42
2018-02-15T01:10:44.807Z,0.50
2018-02-15T01:13:12.266Z,0.47
2018-02-15T01:15:39.722Z,0.41
2018-02-15T01:18:07.186Z,0.56
2018-02-15T01:20:34.650Z,0.48
2018-02-15T01:23:02.154Z,0.49
2018-02-15T01:25:29.621Z,0.51
2018-02-15T01:27:57.096Z,0.34
2018-02-15T01:30:24.754Z,0.36
2018-02-15T01:32:52.239Z,0.38
2018-02-15T01:35:19.710Z,0.36
2018-02-15T01:37:47.247Z,0.28
2018-02-15T01:40:14.725Z,0.36
2018-02-15T01:42:42.253Z,0.28
2018-02-15T01:45:09.787Z,0.25
2018-02-15T01:47:37.263Z,0.34
2018-02-15T01:50:04.771Z,0.26
2018-02-15T01:52:32.251Z,0.17
2018-02-15T01:54:59.703Z,0.27
2018-02-15T01:57:27.172Z,0.20
2018-02-15T01:59:54.629Z,0.29
2018-02-15T02:02:22.092Z,0.31
2018-02-15T02:04:49.555Z,0.19
2018-02-15T02:07:17.040Z,0.23
2018-02-15T02:09:44.506Z,0.24
2018-02-15T02:12:12.062Z,0.10
2018-02-15T02:14:39.517Z,0.11
2018-02-15T02:17:06.987Z,0.00
2018-02-15T02:19:34.438Z,-0.03
2018-02-15T02:22:01.894Z,0.03
2018-02-15T02:24:29.376Z,0.09
2018-02-15T02:26:56.907Z,0.09
2018-02-15T02:29:24.377Z,0.13
2018-02-15T02:31:51.843Z,0.09
2018-02-15T02:34:19.360Z,0.08
2018-02-15T02:36:46.884Z,0.14
2018-02-15T02:39:14.352Z,0.09
2018-02-15T02:41:41.844Z,0.21
2018-02-15T02:44:09.300Z,0.08
2018-02-15T02:46:36.755Z,0.09
2018-02-15T02:49:04.223Z,0.14
2018-02-15T02:51:31.704Z,0.08
2018-02-15T02:53:59.150Z,0.08
2018-02-15T02:56:26.637Z,0.11
2018-02-15T02:58:54.096Z,0.06
2018-02-15T03:01:21.586Z,0.20
2018-02-15T03:03:49.073Z,0.24
2018-02-15T03:06:16.540Z,0.38
2018-02-15T03:08:44.008Z,0.39
2018-02-15T03:11:11.475Z,0.43
2018-02-15T03:13:38.941Z,0.45
2018-02-15T03:16:06.444Z,0.57
2018-02-15T03:18:33.914Z,0.51
2018-02-15T03:21:01.465Z,0.53
2018-02-15T03:23:28.930Z,0.45
2018-02-15T03:25:56.385Z,0.43
2018-02-15T03:28:23.850Z,0.26
2018-02-15T03:30:51.303Z,0.12
2018-02-15T03:33:18.831Z,0.10
2018-02-15T03:35:46.311Z,0.10
2018-02-15T03:38:13.782Z,-0.04
2018-02-15T03:40:41.658Z,-0.04
2018-02-15T03:43:09.137Z,-0.09
2018-02-15T03:45:36.599Z,-0.06
2018-02-15T03:48:04.099Z,-0.17
2018-02-15T03:50:31.579Z,-0.17
2018-02-15T03:52:59.033Z,-0.24
2018-02-15T03:55:26.522Z,-0.24
2018-02-15T03:57:53.983Z,-0.13
2018-02-15T04:00:27.225Z,-0.08
2018-02-15T04:02:54.700Z,-0.20
2018-02-15T04:05:22.184Z,-0.15
2018-02-15T04:07:49.647Z,-0.11
2018-02-15T04:10:17.152Z,-0.13
2018-02-15T04:12:44.636Z,-0.10
2018-02-15T04:15:12.150Z,-0.10
2018-02-15T04:17:39.673Z,-0.15
2018-02-15T04:20:07.146Z,-0.24
2018-02-15T04:22:34.614Z,-0.11
2018-02-15T04:25:02.070Z,-0.18
2018-02-15T04:27:29.557Z,-0.34
2018-02-15T04:29:57.027Z,-0.28
2018-02-15T04:32:24.496Z,-0.40
2018-02-15T04:34:51.971Z,-0.31
2018-02-15T04:37:19.428Z,-0.27
2018-02-15T04:39:46.907Z,-0.40
2018-02-15T04:42:14.391Z,-0.39
2018-02-15T04:44:41.855Z,-0.33
2018-02-15T04:47:09.334Z,-0.35
2018-02-15T04:49:36.791Z,-0.33
2018-02-15T04:52:04.274Z,-0.31
2018-02-15T04:54:31.751Z,-0.32
2018-02-15T04:56:59.223Z,-0.41
2018-02-15T04:59:26.714Z,-0.48
2018-02-15T05:01:54.182Z,-0.42
2018-02-15T05:04:21.665Z,-0.43
2018-02-15T05:06:49.142Z,-0.55
2018-02-15T05:09:16.673Z,-0.57
2018-02-15T05:11:44.141Z,-0.61
2018-02-15T05:14:11.675Z,-0.42
2018-02-15T05:16:39.332Z,-0.50
2018-02-15T05:19:06.827Z,-0.55
2018-02-15T05:21:34.295Z,-0.47
2018-02-15T05:24:01.753Z,-0.55
2018-02-15T05:26:29.223Z,-0.54
2018-02-15T05:28:56.703Z,-0.50
2018-02-15T05:31:25.115Z,-0.51
2018-02-15T05:33:52.627Z,-0.65
2018-02-15T05:36:20.102Z,-0.50
2018-02-15T05:38:47.706Z,-0.49
2018-02-15T05:41:15.204Z,-0.48
2018-02-15T05:43:42.675Z,-0.55
2018-02-15T05:46:10.136Z,-0.53
2018-02-15T05:48:37.644Z,-0.51
2018-02-15T05:51:05.099Z,-0.46
2018-02-15T05:53:32.591Z,-0.47
2018-02-15T05:56:00.094Z,-0.50
2018-02-15T05:58:27.560Z,-0.37
2018-02-15T06:00:55.046Z,-0.47
2018-02-15T06:03:22.519Z,-0.56
2018-02-15T06:05:49.998Z,-0.50
2018-02-15T06:08:17.483Z,-0.38
2018-02-15T06:10:44.992Z,-0.42
2018-02-15T06:13:12.466Z,-0.39
2018-02-15T06:15:39.950Z,-0.49
2018-02-15T06:18:07.407Z,-0.47
2018-02-15T06:20:34.866Z,-0.38
2018-02-15T06:23:02.356Z,-0.40
2018-02-15T06:25:30.000Z,-0.41
2018-02-15T06:27:57.474Z,-0.39
2018-02-15T06:30:26.123Z,-0.28
2018-02-15T06:32:53.615Z,-0.19
2018-02-15T06:35:21.098Z,0.34
2018-02-15T06:37:48.595Z,0.35
2018-02-15T06:40:16.059Z,0.58
2018-02-15T06:42:43.708Z,0.49
2018-02-15T06:45:11.217Z,0.59
2018-02-15T06:47:38.682Z,0.65
2018-02-15T06:50:06.160Z,0.81
2018-02-15T06:52:33.622Z,0.81
2018-02-15T06:55:01.096Z,0.75
2018-02-15T06:57:28.567Z,0.76
2018-02-15T06:59:56.073Z,0.91
2018-02-15T07:02:23.560Z,1.10
2018-02-15T07:04:51.018Z,1.27
2018-02-15T07:07:18.510Z,1.45
2018-02-15T07:09:45.983Z,1.48
2018-02-15T07:12:14.284Z,1.63
2018-02-15T07:14:41.783Z,1.58
2018-02-15T07:17:09.272Z,1.47
2018-02-15T07:19:36.748Z,1.38
2018-02-15T07:22:04.240Z,1.46
2018-02-15T07:24:31.739Z,1.51
2018-02-15T07:26:59.239Z,1.37
2018-02-15T07:29:26.721Z,1.51
2018-02-15T07:31:54.211Z,1.55
2018-02-15T07:34:21.667Z,1.60
2018-02-15T07:36:49.158Z,1.56
2018-02-15T07:39:16.695Z,1.65
2018-02-15T07:41:44.172Z,1.67
2018-02-15T07:44:11.676Z,1.66
2018-02-15T07:46:40.423Z,1.68
2018-02-15T07:49:07.903Z,1.63
2018-02-15T07:51:35.386Z,1.57
2018-02-15T07:54:03.063Z,1.74
2018-02-15T07:56:30.615Z,1.75
2018-02-15T07:58:58.096Z,1.83
2018-02-15T08:01:25.593Z,1.80
2018-02-15T08:03:53.068Z,1.82
2018-02-15T08:06:20.532Z,1.79
2018-02-15T08:08:48.116Z,1.74
2018-02-15T08:11:15.619Z,1.79
2018-02-15T08:13:43.120Z,1.92
2018-02-15T08:16:10.595Z,2.09
2018-02-15T08:18:38.059Z,1.92
2018-02-15T08:21:05.561Z,1.99
2018-02-15T08:23:33.042Z,2.12
2018-02-15T08:26:00.522Z,2.03
2018-02-15T08:28:27.972Z,2.11
2018-02-15T08:30:55.426Z,2.13
2018-02-15T08:33:22.912Z,2.15
2018-02-15T08:35:50.413Z,2.29
2018-02-15T08:38:17.869Z,2.33
2018-02-15T08:40:45.354Z,2.43
2018-02-15T08:43:12.819Z,2.45
2018-02-15T08:45:40.287Z,2.55
2018-02-15T08:48:07.779Z,2.63
2018-02-15T08:50:35.300Z,2.65
2018-02-15T08:53:02.792Z,2.62
2018-02-15T08:55:30.271Z,2.77
2018-02-15T08:57:57.755Z,2.75
2018-02-15T09:00:25.345Z,2.64
2018-02-15T09:15:50.960Z,2.79
2018-02-15T09:18:18.442Z,2.97
2018-02-15T09:20:46.039Z,2.99
2018-02-15T09:23:13.515Z,2.99
2018-02-15T09:25:41.005Z,2.95
2018-02-15T09:28:08.487Z,3.09
2018-02-15T09:30:36.022Z,3.01
2018-02-15T09:33:03.567Z,2.96
2018-02-15T09:35:31.056Z,3.00
2018-02-15T09:37:58.507Z,3.10
2018-02-15T09:40:25.979Z,3.12
2018-02-15T09:42:53.431Z,3.20
2018-02-15T09:45:20.883Z,3.05
2018-02-15T09:47:48.378Z,3.24
2018-02-15T09:50:15.854Z,3.27
2018-02-15T09:52:43.415Z,3.42
2018-02-15T09:55:10.878Z,3.35
2018-02-15T09:57:38.360Z,3.29
2018-02-15T10:00:05.904Z,3.15
2018-02-15T10:02:33.355Z,2.96
2018-02-15T10:05:00.826Z,3.15
2018-02-15T10:07:28.354Z,3.29
2018-02-15T10:09:55.817Z,3.49
2018-02-15T10:12:23.293Z,3.69
2018-02-15T10:14:51.538Z,3.89
2018-02-15T10:17:19.119Z,4.11
2018-02-15T10:19:46.564Z,4.23
2018-02-15T10:22:14.041Z,4.24
2018-02-15T10:24:41.555Z,4.20
2018-02-15T10:27:09.039Z,4.11
2018-02-15T10:29:36.519Z,4.26
2018-02-15T10:32:04.002Z,4.34
2018-02-15T10:34:31.518Z,4.71
2018-02-15T10:36:58.979Z,5.03
2018-02-15T10:39:26.619Z,4.84
2018-02-15T10:41:54.094Z,4.73
2018-02-15T10:44:21.546Z,4.79
2018-02-15T10:46:49.034Z,4.72
2018-02-15T10:49:16.481Z,4.65
2018-02-15T10:51:43.967Z,4.55
2018-02-15T10:54:11.451Z,4.61
2018-02-15T10:56:38.983Z,4.61
2018-02-15T10:59:06.530Z,4.71
2018-02-15T11:01:39.545Z,4.87
2018-02-15T11:04:12.498Z,4.75
2018-02-15T11:06:39.984Z,4.62
2018-02-15T11:09:07.450Z,4.72
2018-02-15T11:11:34.902Z,4.80
2018-02-15T11:14:02.394Z,4.93
2018-02-15T11:16:29.888Z,5.02
2018-02-15T11:18:57.396Z,4.95
2018-02-15T11:21:24.926Z,5.08
2018-02-15T11:23:52.412Z,5.22
2018-02-15T11:26:19.897Z,5.29
2018-02-15T11:28:47.494Z,5.36
2018-02-15T11:31:14.954Z,5.36
2018-02-15T11:33:42.411Z,5.37
2018-02-15T11:36:09.911Z,5.41
2018-02-15T11:38:37.363Z,5.41
2018-02-15T11:41:04.876Z,5.20
2018-02-15T11:43:32.414Z,5.08
2018-02-15T11:45:59.911Z,5.20
2018-02-15T11:48:27.402Z,5.31
2018-02-15T11:50:54.926Z,5.41
2018-02-15T11:53:22.384Z,5.23
2018-02-15T11:55:49.888Z,5.28
2018-02-15T11:58:17.399Z,5.43
2018-02-15T12:00:44.893Z,5.61
2018-02-15T12:03:13.025Z,5.62
2018-02-15T12:05:40.479Z,5.62
2018-02-15T12:08:08.017Z,5.75
2018-02-15T12:10:35.498Z,5.93
2018-02-15T12:13:02.980Z,6.00
2018-02-15T12:15:30.505Z,6.04
2018-02-15T12:17:57.989Z,6.14
2018-02-15T12:20:25.448Z,6.11
2018-02-15T12:22:52.935Z,6.20
2018-02-15T12:25:20.399Z,6.24
2018-02-15T12:27:47.909Z,6.29
2018-02-15T12:30:15.394Z,6.18
2018-02-15T12:32:42.860Z,6.11
2018-02-15T12:35:10.364Z,6.28
2018-02-15T12:37:37.840Z,6.36
2018-02-15T12:40:05.311Z,6.40
2018-02-15T12:42:32.842Z,6.30
2018-02-15T12:45:00.358Z,6.29
2018-02-15T12:47:27.840Z,6.37
2018-02-15T12:49:55.319Z,6.46
2018-02-15T12:52:22.788Z,6.66
2018-02-15T12:54:50.270Z,6.85
2018-02-15T12:57:17.782Z,6.71
2018-02-15T12:59:45.251Z,6.76
2018-02-15T13:02:12.735Z,6.87
2018-02-15T13:04:40.296Z,6.72
2018-02-15T13:07:07.806Z,6.82
2018-02-15T13:09:35.332Z,6.89
2018-02-15T13:12:02.840Z,6.97
2018-02-15T13:14:30.316Z,7.13
2018-02-15T13:16:57.833Z,6.99
2018-02-15T13:19:37.130Z,6.98
2018-02-15T13:22:07.241Z,7.16
2018-02-15T13:24:34.719Z,7.35
2018-02-15T13:27:02.273Z,7.49
2018-02-15T13:29:29.764Z,7.54
2018-02-15T13:31:57.275Z,7.57
2018-02-15T13:34:24.787Z,7.43
2018-02-15T13:36:52.321Z,7.48
2018-02-15T13:39:19.888Z,7.43
2018-02-15T13:41:47.377Z,7.49
2018-02-15T13:44:14.871Z,7.54
2018-02-15T13:46:42.400Z,7.49
2018-02-15T13:49:09.868Z,7.26
2018-02-15T13:51:37.360Z,7.36
2018-02-15T13:54:04.847Z,7.31
2018-02-15T13:56:32.340Z,7.56
2018-02-15T13:58:59.860Z,7.72
2018-02-15T14:01:27.424Z,7.70
2018-02-15T14:03:54.900Z,7.67
2018-02-15T14:06:23.303Z,7.38
2018-02-15T14:08:50.811Z,7.38
2018-02-15T14:11:18.316Z,7.22
2018-02-15T14:13:45.803Z,7.15
2018-02-15T14:16:13.319Z,7.20
2018-02-15T14:18:40.804Z,7.06
2018-02-15T14:21:08.279Z,6.94
2018-02-15T14:23:35.765Z,6.98
2018-02-15T14:26:03.243Z,7.20
2018-02-15T14:28:30.706Z,7.30
2018-02-15T14:30:58.208Z,7.25
2018-02-15T14:33:25.698Z,7.26
2018-02-15T14:35:53.183Z,7.40
2018-02-15T14:38:20.708Z,7.26
2018-02-15T14:40:48.269Z,7.33
2018-02-15T14:43:15.727Z,7.36
2018-02-15T14:45:43.219Z,7.19
2018-02-15T14:48:10.687Z,7.17
2018-02-15T14:50:38.177Z,7.06
2018-02-15T14:53:05.703Z,6.96
2018-02-15T14:55:33.183Z,6.78
2018-02-15T14:58:00.644Z,6.66
2018-02-15T15:00:28.146Z,6.49
2018-02-15T15:02:55.668Z,6.43
2018-02-15T15:05:23.137Z,6.16
2018-02-15T15:07:50.648Z,5.89
2018-02-15T15:10:18.200Z,5.81
2018-02-15T15:12:45.826Z,5.67
2018-02-15T15:15:14.364Z,5.57
2018-02-15T15:17:41.855Z,5.42
2018-02-15T15:20:09.355Z,5.15
2018-02-15T15:22:36.836Z,5.05
2018-02-15T15:25:04.358Z,4.90
2018-02-15T15:27:31.898Z,4.79
2018-02-15T15:29:59.387Z,4.77
2018-02-15T15:32:26.868Z,4.63
2018-02-15T15:34:54.348Z,4.51
2018-02-15T15:37:21.830Z,4.30
2018-02-15T15:39:49.317Z,4.24
2018-02-15T15:42:16.827Z,4.08
2018-02-15T15:44:44.337Z,4.01
2018-02-15T15:47:11.798Z,3.86
2018-02-15T15:49:39.286Z,3.69
2018-02-15T15:52:06.788Z,3.58
2018-02-15T15:54:34.262Z,3.48
2018-02-15T15:57:01.737Z,3.41
2018-02-15T15:59:29.227Z,3.39
2018-02-15T16:01:56.694Z,3.29
2018-02-15T16:04:24.176Z,3.11
2018-02-15T16:06:51.660Z,3.00
2018-02-15T16:09:19.498Z,2.95
2018-02-15T16:11:47.030Z,2.89
2018-02-15T16:14:14.504Z,2.79
2018-02-15T16:16:41.988Z,2.66
2018-02-15T16:19:09.489Z,2.66
2018-02-15T16:21:36.992Z,2.58
2018-02-15T16:24:04.461Z,2.49
2018-02-15T16:26:31.959Z,2.40
2018-02-15T16:28:59.423Z,2.47
2018-02-15T16:31:26.907Z,2.37
2018-02-15T16:33:54.483Z,2.28
2018-02-15T16:36:21.961Z,2.21
2018-02-15T16:38:49.474Z,2.16
2018-02-15T16:41:16.951Z,2.15
2018-02-15T16:43:44.404Z,2.14
2018-02-15T16:46:11.912Z,2.12
2018-02-15T16:48:39.452Z,2.12
2018-02-15T16:51:06.989Z,2.11
2018-02-15T16:53:34.455Z,2.03
2018-02-15T16:56:01.941Z,2.03
2018-02-15T16:58:29.446Z,2.09
2018-02-15T17:00:56.929Z,2.04
2018-02-15T17:03:24.475Z,1.99
2018-02-15T17:05:51.996Z,1.94
2018-02-15T17:08:19.456Z,1.87
2018-02-15T17:10:46.929Z,1.89
2018-02-15T17:13:14.426Z,1.84
2018-02-15T17:15:41.894Z,1.79
2018-02-15T17:18:09.379Z,1.76
2018-02-15T17:20:36.852Z,1.78
2018-02-15T17:23:04.317Z,1.76
2018-02-15T17:25:31.790Z,1.75
2018-02-15T17:27:59.262Z,1.74
2018-02-15T17:30:26.731Z,1.76
2018-02-15T17:32:54.237Z,1.72
2018-02-15T17:35:21.718Z,1.69
2018-02-15T17:37:49.173Z,1.67
2018-02-15T17:40:16.635Z,1.82
2018-02-15T17:42:44.432Z,1.84
2018-02-15T17:45:11.893Z,1.77
2018-02-15T17:47:39.367Z,1.80
2018-02-15T17:50:06.824Z,1.78
2018-02-15T17:52:34.457Z,1.77
2018-02-15T17:55:01.941Z,1.71
2018-02-15T17:57:29.422Z,1.71
2018-02-15T17:59:56.895Z,1.75
2018-02-15T18:02:24.359Z,1.73
2018-02-15T18:04:51.816Z,1.68
2018-02-15T18:07:19.279Z,1.71
2018-02-15T18:09:46.780Z,1.68
2018-02-15T18:12:14.282Z,1.82
2018-02-15T18:14:41.731Z,1.78
2018-02-15T18:17:09.232Z,1.76
2018-02-15T18:19:36.691Z,1.74
2018-02-15T18:22:04.176Z,1.72
2018-02-15T18:24:31.681Z,1.73
2018-02-15T18:26:59.139Z,1.97
2018-02-15T18:29:26.607Z,2.08
2018-02-15T18:31:54.078Z,1.98
2018-02-15T18:34:21.544Z,1.93
2018-02-15T18:36:49.016Z,2.04
2018-02-15T18:39:16.616Z,1.96
2018-02-15T18:41:44.085Z,1.92
2018-02-15T18:44:11.554Z,1.96
2018-02-15T18:46:39.076Z,1.99
2018-02-15T18:49:06.527Z,2.15
2018-02-15T18:51:33.992Z,2.15
2018-02-15T18:54:01.451Z,2.20
2018-02-15T18:56:28.919Z,2.09
2018-02-15T18:58:56.394Z,2.02
2018-02-15T19:01:23.894Z,2.00
2018-02-15T19:03:51.352Z,2.09
2018-02-15T19:06:18.815Z,2.05
2018-02-15T19:08:46.331Z,2.00
2018-02-15T19:11:13.784Z,2.05
2018-02-15T19:13:41.265Z,2.09
2018-02-15T19:16:08.774Z,2.07
2018-02-15T19:18:36.361Z,2.15
2018-02-15T19:21:03.824Z,2.19
2018-02-15T19:23:31.310Z,2.15
2018-02-15T19:25:58.773Z,2.09
2018-02-15T19:28:26.263Z,2.22
2018-02-15T19:30:53.730Z,2.21
2018-02-15T19:33:21.216Z,2.25
2018-02-15T19:35:48.681Z,2.26
2018-02-15T19:38:16.147Z,2.43
2018-02-15T19:40:43.707Z,2.37
2018-02-15T19:43:11.241Z,2.29
2018-02-15T19:45:38.836Z,2.25
2018-02-15T19:48:06.308Z,2.20
2018-02-15T19:50:33.802Z,2.14
2018-02-15T19:53:01.273Z,2.08
2018-02-15T19:55:28.808Z,2.06
2018-02-15T19:57:56.973Z,2.03
2018-02-15T20:00:24.724Z,2.03
2018-02-15T20:02:52.312Z,2.07
2018-02-15T20:05:19.778Z,2.03
2018-02-15T20:07:47.251Z,2.17
2018-02-15T20:10:14.776Z,2.02
2018-02-15T20:12:42.366Z,2.04
2018-02-15T20:15:09.912Z,1.95
2018-02-15T20:17:37.360Z,1.97
2018-02-15T20:20:10.416Z,1.96
2018-02-15T20:22:38.925Z,2.00
2018-02-15T20:25:06.459Z,2.03
2018-02-15T20:27:39.647Z,2.01
2018-02-15T20:30:07.222Z,2.05
2018-02-15T20:32:34.801Z,2.06
2018-02-15T20:35:02.351Z,2.12
2018-02-15T20:37:35.421Z,2.12
2018-02-15T20:40:08.695Z,2.12
2018-02-15T20:42:36.275Z,2.12
2018-02-15T20:45:03.834Z,2.11
2018-02-15T20:47:31.418Z,2.14
2018-02-15T20:50:04.406Z,2.17
2018-02-15T20:52:37.415Z,2.20
2018-02-15T20:55:10.591Z,2.23
2018-02-15T20:57:38.068Z,2.19
2018-02-15T21:00:05.522Z,2.19
2018-02-15T21:02:32.971Z,2.18
2018-02-15T21:05:00.446Z,2.25
2018-02-15T21:07:27.911Z,2.20
2018-02-15T21:09:55.403Z,2.16
2018-02-15T21:12:22.893Z,2.12
2018-02-15T21:14:50.388Z,2.03
2018-02-15T21:17:17.876Z,2.17
2018-02-15T21:19:45.323Z,2.13
2018-02-15T21:22:12.794Z,2.09
2018-02-15T21:24:40.397Z,2.06
2018-02-15T21:27:07.865Z,2.09
2018-02-15T21:29:35.331Z,2.07
2018-02-15T21:32:02.819Z,2.10
2018-02-15T21:34:30.279Z,2.05
2018-02-15T21:36:58.553Z,2.00
2018-02-15T21:39:26.122Z,2.01
2018-02-15T21:41:53.597Z,2.03
2018-02-15T21:44:21.067Z,2.12
2018-02-15T21:46:48.586Z,2.12
2018-02-15T21:49:16.082Z,2.10
2018-02-15T21:51:43.577Z,2.12
2018-02-15T21:54:11.036Z,2.15
2018-02-15T21:56:38.522Z,2.18
2018-02-15T21:59:05.991Z,2.11
2018-02-15T22:01:33.465Z,2.04
2018-02-15T22:04:00.956Z,2.06
2018-02-15T22:06:28.602Z,2.07
2018-02-15T22:08:56.079Z,2.05
2018-02-15T22:11:23.620Z,2.05
2018-02-15T22:13:51.094Z,2.05
2018-02-15T22:16:18.580Z,2.07
2018-02-15T22:18:46.044Z,2.05
2018-02-15T22:21:13.521Z,2.05
2018-02-15T22:23:40.991Z,2.08
2018-02-15T22:26:08.458Z,2.02
2018-02-15T22:28:35.949Z,2.00
2018-02-15T22:31:03.395Z,1.94
2018-02-15T22:33:30.886Z,1.99
2018-02-15T22:35:58.373Z,1.96
2018-02-15T22:38:25.892Z,1.92
2018-02-15T22:40:53.371Z,1.94
2018-02-15T22:43:20.825Z,1.95
2018-02-15T22:45:48.295Z,1.92
2018-02-15T22:48:15.751Z,1.88
2018-02-15T22:50:43.446Z,1.81
2018-02-15T22:53:10.912Z,1.76
2018-02-15T22:55:38.387Z,1.79
2018-02-15T22:58:05.873Z,1.78
2018-02-15T23:00:33.335Z,1.80
2018-02-15T23:03:00.798Z,1.79
2018-02-15T23:05:28.332Z,1.82
2018-02-15T23:07:55.803Z,1.81
2018-02-15T23:10:23.282Z,1.79
2018-02-15T23:12:50.752Z,1.84
2018-02-15T23:15:18.827Z,1.85
2018-02-15T23:17:46.291Z,1.76
2018-02-15T23:20:13.762Z,1.69
2018-02-15T23:22:41.231Z,1.64
2018-02-15T23:25:08.699Z,1.65
2018-02-15T23:27:36.155Z,1.69
2018-02-15T23:30:03.723Z,1.74
2018-02-15T23:32:31.174Z,1.78
2018-02-15T23:34:58.659Z,1.85
2018-02-15T23:37:26.123Z,1.92
2018-02-15T23:39:53.612Z,1.95
2018-02-15T23:42:21.123Z,2.05
2018-02-15T23:44:48.767Z,2.04
2018-02-15T23:47:16.222Z,2.13
2018-02-15T23:49:43.682Z,2.15
2018-02-15T23:52:11.276Z,2.15
2018-02-15T23:54:38.762Z,2.19
2018-02-15T23:57:06.223Z,2.19
2018-02-15T23:59:33.687Z,2.23
